sensor_id;sensor_type;location;lat;lon;timestamp;pressure;altitude;pressure_sealevel;temperature;humidity
57799;BME280;43626;53.866;30.298;2023-05-02T00:01:48;1029.6;;;6.1;51.6
57799;BME280;43626;53.866;30.298;2023-05-02T00:06:54;1029.7;;;6;51.8
57799;BME280;43626;53.866;30.298;2023-05-02T00:11:40;1029.7;;;6;51.9
57799;BME280;43626;53.866;30.298;2023-05-02T00:17:02;1029.7;;;5.9;51.9
57799;BME280;43626;53.866;30.298;2023-05-02T00:21:48;1029.8;;;5.9;52
57799;BME280;43626;53.866;30.298;2023-05-02T00:26:26;1029.8;;;5.9;51.5
57799;BME280;43626;53.866;30.298;2023-05-02T00:31:16;1029.8;;;5.9;51.6
57799;BME280;43626;53.866;30.298;2023-05-02T00:36:52;1029.8;;;5.9;51.4
57799;BME280;43626;53.866;30.298;2023-05-02T00:41:32;1029.8;;;5.8;51.4
57799;BME280;43626;53.866;30.298;2023-05-02T00:46:50;1029.8;;;5.8;51.6
57799;BME280;43626;53.866;30.298;2023-05-02T00:51:50;1029.7;;;5.8;51.8
57799;BME280;43626;53.866;30.298;2023-05-02T00:56:38;1029.7;;;5.7;52.2
57799;BME280;43626;53.866;30.298;2023-05-02T01:01:49;1029.7;;;5.6;52.3
57799;BME280;43626;53.866;30.298;2023-05-02T01:06:45;1029.7;;;5.6;52.5
57799;BME280;43626;53.866;30.298;2023-05-02T01:11:25;1029.8;;;5.5;52.5
57799;BME280;43626;53.866;30.298;2023-05-02T01:16:54;1029.8;;;5.5;52.4
57799;BME280;43626;53.866;30.298;2023-05-02T01:22:02;1029.8;;;5.5;52.1
57799;BME280;43626;53.866;30.298;2023-05-02T01:26:16;1029.8;;;5.5;52.1
57799;BME280;43626;53.866;30.298;2023-05-02T01:31:48;1029.8;;;5.5;52.2
57799;BME280;43626;53.866;30.298;2023-05-02T01:36:54;1029.8;;;5.5;52.2
57799;BME280;43626;53.866;30.298;2023-05-02T01:41:53;1029.8;;;5.4;52.3
57799;BME280;43626;53.866;30.298;2023-05-02T01:51:50;1029.9;;;5.3;52.7
57799;BME280;43626;53.866;30.298;2023-05-02T01:57:05;1029.9;;;5.3;52.7
57799;BME280;43626;53.866;30.298;2023-05-02T02:02:00;1030;;;5.2;52.8
57799;BME280;43626;53.866;30.298;2023-05-02T02:06:26;1030;;;5.2;53
57799;BME280;43626;53.866;30.298;2023-05-02T02:12:04;1030;;;5.3;52.9
57799;BME280;43626;53.866;30.298;2023-05-02T02:16:42;1030;;;5.3;52.7
57799;BME280;43626;53.866;30.298;2023-05-02T02:21:28;1030;;;5.3;52.8
57799;BME280;43626;53.866;30.298;2023-05-02T02:26:34;1030;;;5.3;52.7
57799;BME280;43626;53.866;30.298;2023-05-02T02:32:02;1030;;;5.2;52.8
57799;BME280;43626;53.866;30.298;2023-05-02T02:36:43;1030;;;5.2;52.9
57799;BME280;43626;53.866;30.298;2023-05-02T02:42:05;1030.1;;;5.2;53.3
57799;BME280;43626;53.866;30.298;2023-05-02T02:47:05;1030.1;;;5.2;53.7
57799;BME280;43626;53.866;30.298;2023-05-02T02:51:20;1030.2;;;5.2;53.4
57799;BME280;43626;53.866;30.298;2023-05-02T02:56:18;1030.2;;;5.2;53.3
57799;BME280;43626;53.866;30.298;2023-05-02T03:01:52;1030.2;;;5.3;53.3
57799;BME280;43626;53.866;30.298;2023-05-02T03:06:46;1030.3;;;5.3;53.2
57799;BME280;43626;53.866;30.298;2023-05-02T03:11:26;1030.4;;;5.4;53.3
57799;BME280;43626;53.866;30.298;2023-05-02T03:16:42;1030.4;;;5.5;53.3
57799;BME280;43626;53.866;30.298;2023-05-02T03:22:04;1030.5;;;5.6;53.3
57799;BME280;43626;53.866;30.298;2023-05-02T03:26:48;1030.5;;;5.7;53.8
57799;BME280;43626;53.866;30.298;2023-05-02T03:31:42;1030.5;;;5.8;54
57799;BME280;43626;53.866;30.298;2023-05-02T03:36:34;1030.6;;;5.9;54.3
57799;BME280;43626;53.866;30.298;2023-05-02T03:42:02;1030.6;;;6;54.5
57799;BME280;43626;53.866;30.298;2023-05-02T03:46:16;1030.6;;;6.2;54.2
57799;BME280;43626;53.866;30.298;2023-05-02T03:51:50;1030.6;;;6.3;53.7
57799;BME280;43626;53.866;30.298;2023-05-02T03:56:52;1030.7;;;6.5;52.9
57799;BME280;43626;53.866;30.298;2023-05-02T04:01:26;1030.6;;;6.7;52.3
57799;BME280;43626;53.866;30.298;2023-05-02T04:06:40;1030.7;;;6.9;52
57799;BME280;43626;53.866;30.298;2023-05-02T04:11:42;1030.7;;;7;51.6
57799;BME280;43626;53.866;30.298;2023-05-02T04:16:26;1030.7;;;7.2;51.2
57799;BME280;43626;53.866;30.298;2023-05-02T04:21:54;1030.7;;;7.4;50.8
57799;BME280;43626;53.866;30.298;2023-05-02T04:27:02;1030.8;;;7.6;50.5
57799;BME280;43626;53.866;30.298;2023-05-02T04:31:16;1030.8;;;7.8;50.2
57799;BME280;43626;53.866;30.298;2023-05-02T04:36:46;1030.8;;;8;49.4
57799;BME280;43626;53.866;30.298;2023-05-02T04:41:32;1030.8;;;8.1;48.6
57799;BME280;43626;53.866;30.298;2023-05-02T04:46:50;1030.8;;;8.2;48.4
57799;BME280;43626;53.866;30.298;2023-05-02T04:51:44;1030.8;;;8.3;48.3
57799;BME280;43626;53.866;30.298;2023-05-02T04:56:36;1030.8;;;8.5;48.3
57799;BME280;43626;53.866;30.298;2023-05-02T05:02:00;1030.8;;;8.6;47.7
57799;BME280;43626;53.866;30.298;2023-05-02T05:07:00;1030.7;;;8.7;47
57799;BME280;43626;53.866;30.298;2023-05-02T05:11:16;1030.7;;;8.8;46.5
57799;BME280;43626;53.866;30.298;2023-05-02T05:17:00;1030.7;;;8.9;46.3
57799;BME280;43626;53.866;30.298;2023-05-02T05:21:52;1030.7;;;9.1;46
57799;BME280;43626;53.866;30.298;2023-05-02T05:26:28;1030.7;;;9.2;45.1
57799;BME280;43626;53.866;30.298;2023-05-02T05:31:50;1030.7;;;9.4;44.5
57799;BME280;43626;53.866;30.298;2023-05-02T05:37:00;1030.6;;;9.6;43.4
57799;BME280;43626;53.866;30.298;2023-05-02T05:41:42;1030.5;;;9.8;42.8
57799;BME280;43626;53.866;30.298;2023-05-02T05:46:50;1030.4;;;10;42.2
57799;BME280;43626;53.866;30.298;2023-05-02T05:52:00;1030.5;;;10.3;41.3
57799;BME280;43626;53.866;30.298;2023-05-02T05:56:16;1030.5;;;10.4;40.9
57799;BME280;43626;53.866;30.298;2023-05-02T06:01:24;1030.5;;;10.6;40.4
57799;BME280;43626;53.866;30.298;2023-05-02T06:06:42;1030.5;;;10.8;39.9
57799;BME280;43626;53.866;30.298;2023-05-02T06:11:44;1030.4;;;11;39.2
57799;BME280;43626;53.866;30.298;2023-05-02T06:16:52;1030.4;;;11.2;38.6
57799;BME280;43626;53.866;30.298;2023-05-02T06:21:48;1030.4;;;11.3;37.2
57799;BME280;43626;53.866;30.298;2023-05-02T06:27:00;1030.4;;;11.5;35.6
57799;BME280;43626;53.866;30.298;2023-05-02T06:31:44;1030.4;;;11.7;34.9
57799;BME280;43626;53.866;30.298;2023-05-02T06:37:02;1030.4;;;11.8;33.9
57799;BME280;43626;53.866;30.298;2023-05-02T06:41:34;1030.4;;;12;33.3
57799;BME280;43626;53.866;30.298;2023-05-02T06:46:27;1030.4;;;12.2;34.1
57799;BME280;43626;53.866;30.298;2023-05-02T06:51:36;1030.3;;;12.4;34.1
57799;BME280;43626;53.866;30.298;2023-05-02T06:57:02;1030.3;;;12.5;33.6
57799;BME280;43626;53.866;30.298;2023-05-02T07:01:36;1030.3;;;12.7;33.4
57799;BME280;43626;53.866;30.298;2023-05-02T07:06:28;1030.3;;;12.8;33
57799;BME280;43626;53.866;30.298;2023-05-02T07:12:00;1030.3;;;13;32.6
57799;BME280;43626;53.866;30.298;2023-05-02T07:16:40;1030.3;;;13.1;31.8
57799;BME280;43626;53.866;30.298;2023-05-02T07:21:16;1030.3;;;13.3;31.1
57799;BME280;43626;53.866;30.298;2023-05-02T07:26:34;1030.3;;;13.5;30.8
57799;BME280;43626;53.866;30.298;2023-05-02T07:32:02;1030.2;;;13.7;31.1
57799;BME280;43626;53.866;30.298;2023-05-02T07:36:16;1030.2;;;13.8;30.1
57799;BME280;43626;53.866;30.298;2023-05-02T07:42:00;1030.1;;;14;30.6
57799;BME280;43626;53.866;30.298;2023-05-02T07:47:00;1030.1;;;14.3;31.1
57799;BME280;43626;53.866;30.298;2023-05-02T07:51:28;1030.1;;;14.4;30.4
57799;BME280;43626;53.866;30.298;2023-05-02T07:56:36;1030;;;14.6;30.8
57799;BME280;43626;53.866;30.298;2023-05-02T08:01:50;1030;;;14.8;30.5
57799;BME280;43626;53.866;30.298;2023-05-02T08:06:46;1029.9;;;14.9;30.2
57799;BME280;43626;53.866;30.298;2023-05-02T08:11:52;1029.9;;;15;29
57799;BME280;43626;53.866;30.298;2023-05-02T08:16:40;1029.9;;;15;28.5
57799;BME280;43626;53.866;30.298;2023-05-02T08:22:00;1029.8;;;15.1;28.9
57799;BME280;43626;53.866;30.298;2023-05-02T08:26:46;1029.7;;;15.3;29.7
57799;BME280;43626;53.866;30.298;2023-05-02T08:31:16;1029.7;;;15.4;29.3
57799;BME280;43626;53.866;30.298;2023-05-02T08:36:34;1029.7;;;15.6;29.3
57799;BME280;43626;53.866;30.298;2023-05-02T08:42:00;1029.6;;;15.7;29.4
57799;BME280;43626;53.866;30.298;2023-05-02T08:46:28;1029.5;;;15.9;29.4
57799;BME280;43626;53.866;30.298;2023-05-02T08:51:50;1029.4;;;16.1;29.4
57799;BME280;43626;53.866;30.298;2023-05-02T08:56:44;1029.4;;;16.2;29.3
57799;BME280;43626;53.866;30.298;2023-05-02T09:01:27;1029.3;;;16.3;28.9
57799;BME280;43626;53.866;30.298;2023-05-02T09:06:46;1029.2;;;16.4;28.5
57799;BME280;43626;53.866;30.298;2023-05-02T09:11:30;1029.2;;;16.4;27.6
57799;BME280;43626;53.866;30.298;2023-05-02T09:16:28;1029.1;;;16.4;27.6
57799;BME280;43626;53.866;30.298;2023-05-02T09:22:00;1029;;;16.5;27.6
57799;BME280;43626;53.866;30.298;2023-05-02T09:27:01;1029;;;16.6;27.3
57799;BME280;43626;53.866;30.298;2023-05-02T09:31:50;1029;;;16.7;27.6
57799;BME280;43626;53.866;30.298;2023-05-02T09:36:41;1028.9;;;16.8;27.8
57799;BME280;43626;53.866;30.298;2023-05-02T09:41:50;1028.8;;;16.8;27.7
57799;BME280;43626;53.866;30.298;2023-05-02T09:46:51;1028.8;;;16.9;27.5
57799;BME280;43626;53.866;30.298;2023-05-02T09:51:24;1028.7;;;16.9;27.4
57799;BME280;43626;53.866;30.298;2023-05-02T09:56:52;1028.6;;;17.1;27.3
57799;BME280;43626;53.866;30.298;2023-05-02T10:02:00;1028.6;;;17.2;26.5
57799;BME280;43626;53.866;30.298;2023-05-02T10:07:01;1028.6;;;17.3;27.1
57799;BME280;43626;53.866;30.298;2023-05-02T10:11:22;1028.6;;;17.4;26.8
57799;BME280;43626;53.866;30.298;2023-05-02T10:16:59;1028.6;;;17.5;26.9
57799;BME280;43626;53.866;30.298;2023-05-02T10:21:52;1028.5;;;17.7;27.1
57799;BME280;43626;53.866;30.298;2023-05-02T10:26:30;1028.4;;;17.8;27
57799;BME280;43626;53.866;30.298;2023-05-02T10:31:34;1028.4;;;17.9;27.1
57799;BME280;43626;53.866;30.298;2023-05-02T10:37:00;1028.3;;;18;27
57799;BME280;43626;53.866;30.298;2023-05-02T10:41:30;1028.2;;;18;26.6
57799;BME280;43626;53.866;30.298;2023-05-02T10:47:00;1028.1;;;18;26.6
57799;BME280;43626;53.866;30.298;2023-05-02T10:52:00;1028.1;;;18.1;26.4
57799;BME280;43626;53.866;30.298;2023-05-02T10:56:17;1028;;;18.2;26
57799;BME280;43626;53.866;30.298;2023-05-02T11:01:32;1027.9;;;18.1;25.7
57799;BME280;43626;53.866;30.298;2023-05-02T11:07:16;1027.8;;;18.2;26.3
57799;BME280;43626;53.866;30.298;2023-05-02T11:11:44;1027.8;;;18.4;26.2
57799;BME280;43626;53.866;30.298;2023-05-02T11:17:06;1027.7;;;18.4;26.2
57799;BME280;43626;53.866;30.298;2023-05-02T11:21:30;1027.7;;;18.6;26.2
57799;BME280;43626;53.866;30.298;2023-05-02T11:27:35;1027.7;;;18.7;26.1
57799;BME280;43626;53.866;30.298;2023-05-02T11:31:53;1027.6;;;18.8;26.1
57799;BME280;43626;53.866;30.298;2023-05-02T11:36:28;1027.6;;;18.9;26.1
57799;BME280;43626;53.866;30.298;2023-05-02T11:41:37;1027.5;;;18.9;25.5
57799;BME280;43626;53.866;30.298;2023-05-02T11:47:01;1027.4;;;18.9;25.4
57799;BME280;43626;53.866;30.298;2023-05-02T11:51:28;1027.4;;;19;25.8
57799;BME280;43626;53.866;30.298;2023-05-02T11:56:44;1027.2;;;19.1;25.5
57799;BME280;43626;53.866;30.298;2023-05-02T12:01:18;1027.2;;;19.2;24.9
57799;BME280;43626;53.866;30.298;2023-05-02T12:06:24;1027.1;;;19.2;25.1
57799;BME280;43626;53.866;30.298;2023-05-02T12:11:45;1027;;;19.3;25.2
57799;BME280;43626;53.866;30.298;2023-05-02T12:16:42;1027.1;;;19.4;25
57799;BME280;43626;53.866;30.298;2023-05-02T12:21:28;1027.1;;;19.5;25.2
57799;BME280;43626;53.866;30.298;2023-05-02T12:27:07;1027;;;19.5;25.1
57799;BME280;43626;53.866;30.298;2023-05-02T12:32:00;1027;;;19.5;24.9
57799;BME280;43626;53.866;30.298;2023-05-02T12:36:16;1026.9;;;19.5;24.6
57799;BME280;43626;53.866;30.298;2023-05-02T12:41:44;1026.8;;;19.5;24.4
57799;BME280;43626;53.866;30.298;2023-05-02T12:46:59;1026.8;;;19.6;24.7
57799;BME280;43626;53.866;30.298;2023-05-02T12:51:51;1026.7;;;19.7;24.5
57799;BME280;43626;53.866;30.298;2023-05-02T12:56:37;1026.6;;;19.8;24.5
57799;BME280;43626;53.866;30.298;2023-05-02T13:01:50;1026.6;;;20;24.4
57799;BME280;43626;53.866;30.298;2023-05-02T13:06:58;1026.4;;;20;24.5
57799;BME280;43626;53.866;30.298;2023-05-02T13:12:00;1026.4;;;20;24.2
57799;BME280;43626;53.866;30.298;2023-05-02T13:16:16;1026.4;;;20.1;24.3
57799;BME280;43626;53.866;30.298;2023-05-02T13:22:00;1026.3;;;20.2;24.3
57799;BME280;43626;53.866;30.298;2023-05-02T13:26:58;1026.2;;;20.3;24.3
57799;BME280;43626;53.866;30.298;2023-05-02T13:31:16;1026.1;;;20.4;24
57799;BME280;43626;53.866;30.298;2023-05-02T13:36:28;1026.1;;;20.4;23.9
57799;BME280;43626;53.866;30.298;2023-05-02T13:42:00;1026.1;;;20.6;23.5
57799;BME280;43626;53.866;30.298;2023-05-02T13:46:16;1026;;;20.6;23.6
57799;BME280;43626;53.866;30.298;2023-05-02T13:51:50;1025.9;;;20.5;23.7
57799;BME280;43626;53.866;30.298;2023-05-02T13:57:00;1025.9;;;20.5;23.9
57799;BME280;43626;53.866;30.298;2023-05-02T14:01:16;1025.8;;;20.6;24.1
57799;BME280;43626;53.866;30.298;2023-05-02T14:06:36;1025.9;;;20.6;24
57799;BME280;43626;53.866;30.298;2023-05-02T14:11:16;1025.8;;;20.7;23.9
57799;BME280;43626;53.866;30.298;2023-05-02T14:16:32;1025.7;;;20.7;23.9
57799;BME280;43626;53.866;30.298;2023-05-02T14:21:50;1025.7;;;20.6;23.9
57799;BME280;43626;53.866;30.298;2023-05-02T14:26:42;1025.6;;;20.6;23.9
57799;BME280;43626;53.866;30.298;2023-05-02T14:32:00;1025.5;;;20.6;24
57799;BME280;43626;53.866;30.298;2023-05-02T14:36:44;1025.4;;;20.7;23.8
57799;BME280;43626;53.866;30.298;2023-05-02T14:42:00;1025.3;;;20.7;23.9
57799;BME280;43626;53.866;30.298;2023-05-02T14:46:16;1025.3;;;20.8;23.7
57799;BME280;43626;53.866;30.298;2023-05-02T14:51:35;1025.2;;;20.8;23.8
57799;BME280;43626;53.866;30.298;2023-05-02T14:56:19;1025.1;;;20.7;23.8
57799;BME280;43626;53.866;30.298;2023-05-02T15:02:00;1025;;;20.7;24
57799;BME280;43626;53.866;30.298;2023-05-02T15:06:36;1025;;;20.8;24.1
57799;BME280;43626;53.866;30.298;2023-05-02T15:11:16;1025;;;20.7;24
57799;BME280;43626;53.866;30.298;2023-05-02T15:16:44;1025;;;20.6;24.1
57799;BME280;43626;53.866;30.298;2023-05-02T15:21:42;1025;;;20.7;24.1
57799;BME280;43626;53.866;30.298;2023-05-02T15:26:16;1025;;;20.5;24.2
57799;BME280;43626;53.866;30.298;2023-05-02T15:31:50;1025;;;20.3;24.4
57799;BME280;43626;53.866;30.298;2023-05-02T15:36:58;1025;;;20.2;24.9
57799;BME280;43626;53.866;30.298;2023-05-02T15:41:16;1025;;;19.9;25.1
57799;BME280;43626;53.866;30.298;2023-05-02T15:47:00;1024.9;;;19.6;25.4
57799;BME280;43626;53.866;30.298;2023-05-02T15:52:01;1024.9;;;19.5;25.7
57799;BME280;43626;53.866;30.298;2023-05-02T15:56:16;1024.9;;;19.4;25.8
57799;BME280;43626;53.866;30.298;2023-05-02T16:01:36;1024.9;;;19.5;25.9
57799;BME280;43626;53.866;30.298;2023-05-02T16:06:50;1024.8;;;19.9;25.8
57799;BME280;43626;53.866;30.298;2023-05-02T16:11:44;1024.8;;;20.2;25.5
57799;BME280;43626;53.866;30.298;2023-05-02T16:16:53;1024.8;;;20.4;25.2
57799;BME280;43626;53.866;30.298;2023-05-02T16:21:30;1024.8;;;20.8;24.9
57799;BME280;43626;53.866;30.298;2023-05-02T16:26:58;1024.8;;;21.2;24.4
57799;BME280;43626;53.866;30.298;2023-05-02T16:31:44;1024.8;;;21.3;24.5
57799;BME280;43626;53.866;30.298;2023-05-02T16:36:40;1024.7;;;21.3;24.7
57799;BME280;43626;53.866;30.298;2023-05-02T16:41:34;1024.7;;;20.9;25.1
57799;BME280;43626;53.866;30.298;2023-05-02T16:46:58;1024.6;;;20.3;25.7
57799;BME280;43626;53.866;30.298;2023-05-02T16:51:16;1024.6;;;19.8;26.1
57799;BME280;43626;53.866;30.298;2023-05-02T16:56:50;1024.7;;;19.3;26.7
57799;BME280;43626;53.866;30.298;2023-05-02T17:01:42;1024.7;;;19;27.3
57799;BME280;43626;53.866;30.298;2023-05-02T17:06:28;1024.7;;;18.5;28.3
57799;BME280;43626;53.866;30.298;2023-05-02T17:11:44;1024.6;;;18.1;29.3
57799;BME280;43626;53.866;30.298;2023-05-02T17:16:40;1024.6;;;17.8;29.4
57799;BME280;43626;53.866;30.298;2023-05-02T17:21:22;1024.6;;;17.5;30
57799;BME280;43626;53.866;30.298;2023-05-02T17:27:00;1024.6;;;17.3;29.9
57799;BME280;43626;53.866;30.298;2023-05-02T17:32:00;1024.5;;;17.1;30
57799;BME280;43626;53.866;30.298;2023-05-02T17:36:52;1024.5;;;16.9;30.2
57799;BME280;43626;53.866;30.298;2023-05-02T17:41:44;1024.5;;;16.8;30.4
57799;BME280;43626;53.866;30.298;2023-05-02T17:46:50;1024.4;;;16.6;30.6
57799;BME280;43626;53.866;30.298;2023-05-02T17:51:48;1024.3;;;16.4;30.8
57799;BME280;43626;53.866;30.298;2023-05-02T17:56:24;1024.3;;;16.3;31.5
57799;BME280;43626;53.866;30.298;2023-05-02T18:01:48;1024.2;;;16.1;32.1
57799;BME280;43626;53.866;30.298;2023-05-02T18:07:00;1024.2;;;16;32.3
57799;BME280;43626;53.866;30.298;2023-05-02T18:11:58;1024.2;;;15.8;32.6
57799;BME280;43626;53.866;30.298;2023-05-02T18:16:28;1024.2;;;15.7;32.9
57799;BME280;43626;53.866;30.298;2023-05-02T18:22:00;1024.1;;;15.6;32.8
57799;BME280;43626;53.866;30.298;2023-05-02T18:26:18;1024;;;15.5;32.9
57799;BME280;43626;53.866;30.298;2023-05-02T18:31:16;1024;;;15.5;33
57799;BME280;43626;53.866;30.298;2023-05-02T18:36:28;1024;;;15.4;33.2
57799;BME280;43626;53.866;30.298;2023-05-02T18:42:03;1023.9;;;15.4;33.2
57799;BME280;43626;53.866;30.298;2023-05-02T18:46:26;1023.9;;;15.3;33.7
57799;BME280;43626;53.866;30.298;2023-05-02T18:51:54;1023.9;;;15.2;34
57799;BME280;43626;53.866;30.298;2023-05-02T18:57:02;1023.9;;;15.2;34.1
57799;BME280;43626;53.866;30.298;2023-05-02T19:01:16;1023.8;;;15.1;34.4
57799;BME280;43626;53.866;30.298;2023-05-02T19:06:28;1023.7;;;15;34.4
57799;BME280;43626;53.866;30.298;2023-05-02T19:11:18;1023.7;;;15;34.2
57799;BME280;43626;53.866;30.298;2023-05-02T19:16:44;1023.7;;;14.9;34.2
57799;BME280;43626;53.866;30.298;2023-05-02T19:21:50;1023.7;;;14.9;34.3
57799;BME280;43626;53.866;30.298;2023-05-02T19:26:40;1023.6;;;14.8;34.4
57799;BME280;43626;53.866;30.298;2023-05-02T19:31:58;1023.5;;;14.7;34.6
57799;BME280;43626;53.866;30.298;2023-05-02T19:36:44;1023.6;;;14.7;35
57799;BME280;43626;53.866;30.298;2023-05-02T19:41:16;1023.5;;;14.6;35.3
57799;BME280;43626;53.866;30.298;2023-05-02T19:46:17;1023.5;;;14.6;35.5
57799;BME280;43626;53.866;30.298;2023-05-02T19:52:00;1023.5;;;14.6;35.9
57799;BME280;43626;53.866;30.298;2023-05-02T19:56:24;1023.9;;;14.7;36.2
57799;BME280;43626;53.866;30.298;2023-05-02T20:01:50;1024.6;;;14.7;36.6
57799;BME280;43626;53.866;30.298;2023-05-02T20:06:50;1025.1;;;14.8;36.9
57799;BME280;43626;53.866;30.298;2023-05-02T20:11:16;1025;;;14.9;36.7
57799;BME280;43626;53.866;30.298;2023-05-02T20:16:44;1025;;;15;36.8
57799;BME280;43626;53.866;30.298;2023-05-02T20:21:30;1024.9;;;15;37.3
57799;BME280;43626;53.866;30.298;2023-05-02T20:26:34;1024.9;;;15;37.9
57799;BME280;43626;53.866;30.298;2023-05-02T20:31:25;1024.8;;;15;38.1
57799;BME280;43626;53.866;30.298;2023-05-02T20:37:00;1024.7;;;15;38
57799;BME280;43626;53.866;30.298;2023-05-02T20:41:16;1024.8;;;15.1;38.2
57799;BME280;43626;53.866;30.298;2023-05-02T20:46:44;1024.9;;;15.1;38.6
57799;BME280;43626;53.866;30.298;2023-05-02T20:51:52;1025;;;15;38.7
57799;BME280;43626;53.866;30.298;2023-05-02T20:56:50;1025.1;;;15;38.9
57799;BME280;43626;53.866;30.298;2023-05-02T21:01:24;1025.1;;;14.9;39.3
57799;BME280;43626;53.866;30.298;2023-05-02T21:06:50;1025.3;;;14.8;39.8
57799;BME280;43626;53.866;30.298;2023-05-02T21:12:00;1025.4;;;14.8;40.4
57799;BME280;43626;53.866;30.298;2023-05-02T21:16:58;1025.2;;;14.8;41
57799;BME280;43626;53.866;30.298;2023-05-02T21:21:28;1025.2;;;14.8;41.6
57799;BME280;43626;53.866;30.298;2023-05-02T21:27:00;1025.1;;;14.8;43.1
57799;BME280;43626;53.866;30.298;2023-05-02T21:31:17;1025;;;14.8;45
57799;BME280;43626;53.866;30.298;2023-05-02T21:36:14;1024.8;;;14.8;45.7
57799;BME280;43626;53.866;30.298;2023-05-02T21:41:33;1024.9;;;14.8;46.9
57799;BME280;43626;53.866;30.298;2023-05-02T21:47:00;1025;;;14.7;47.2
57799;BME280;43626;53.866;30.298;2023-05-02T21:51:16;1025;;;14.6;46.9
57799;BME280;43626;53.866;30.298;2023-05-02T21:56:48;1024.9;;;14.6;47
57799;BME280;43626;53.866;30.298;2023-05-02T22:01:58;1024.9;;;14.5;47.2
57799;BME280;43626;53.866;30.298;2023-05-02T22:06:16;1024.9;;;14.5;47.6
57799;BME280;43626;53.866;30.298;2023-05-02T22:11:36;1025;;;14.4;48.2
57799;BME280;43626;53.866;30.298;2023-05-02T22:16:42;1025;;;14.3;49.1
57799;BME280;43626;53.866;30.298;2023-05-02T22:21:32;1025;;;14.1;50.3
57799;BME280;43626;53.866;30.298;2023-05-02T22:26:40;1025;;;14.1;51
57799;BME280;43626;53.866;30.298;2023-05-02T22:31:42;1025.1;;;14;51.3
57799;BME280;43626;53.866;30.298;2023-05-02T22:36:34;1025.2;;;13.9;51.6
57799;BME280;43626;53.866;30.298;2023-05-02T22:42:00;1025.3;;;13.8;51
57799;BME280;43626;53.866;30.298;2023-05-02T22:47:00;1025.3;;;13.8;50.3
57799;BME280;43626;53.866;30.298;2023-05-02T22:51:28;1025.3;;;13.8;50.4
57799;BME280;43626;53.866;30.298;2023-05-02T22:56:26;1025.3;;;13.8;50.5
57799;BME280;43626;53.866;30.298;2023-05-02T23:01:16;1025.4;;;13.8;50.8
57799;BME280;43626;53.866;30.298;2023-05-02T23:07:00;1025.5;;;13.8;51.2
57799;BME280;43626;53.866;30.298;2023-05-02T23:11:50;1025.5;;;13.7;52.1
57799;BME280;43626;53.866;30.298;2023-05-02T23:16:29;1025.6;;;13.7;52.5
57799;BME280;43626;53.866;30.298;2023-05-02T23:22:00;1025.6;;;13.7;52.8
57799;BME280;43626;53.866;30.298;2023-05-02T23:26:42;1025.7;;;13.7;53.4
57799;BME280;43626;53.866;30.298;2023-05-02T23:31:28;1025.7;;;13.7;54.5
57799;BME280;43626;53.866;30.298;2023-05-02T23:36:45;1025.8;;;13.6;55.2
57799;BME280;43626;53.866;30.298;2023-05-02T23:42:00;1025.8;;;13.6;55.7
57799;BME280;43626;53.866;30.298;2023-05-02T23:46:30;1025.9;;;13.6;56.1
57799;BME280;43626;53.866;30.298;2023-05-02T23:52:00;1025.9;;;13.5;56.5
57799;BME280;43626;53.866;30.298;2023-05-02T23:56:51;1025.9;;;13.5;56.9
